Historyczne dane pomiarowe

Dodano dane terminowe – wersja testowa.

Dane z okresu 1951-2019

Wersja bazy: 1.34 [2019-03-16, lista zmian], aktualizacja planowana na 2019-04-15

Dane meteo z obszaru Polski uzyskane na podstawie danych udostępnionych przez Instytut Meteorologii i Gospodarki Wodnej – Państwowy Instytut Badawczy.

 

Wybierz Datę:    

       

TemperaturaWilgotnośćWiatrCiśnienieOpadyŚniegCzas trwania zjawisk
 Stacja t tx tn tng RH VA  wxwx mslp ppp RRR   cm mm wxwxwxwxwxwxwx
2010-06-13 14.6 19.0 10.3 8.1 65.0 10.5- 2.8--1006.5- 0.0--x- 11.4-------
2010-06-14 15.0 20.8 8.4 7.0 63.0 10.3- 1.6--1007.5- 0.0--x- 6.1-------
2010-06-15 15.7 21.1 6.8 4.9 63.0 10.9- 1.6--1011.6- 0.0--x- 6.1-------
2010-06-16 14.8 22.2 4.1 2.0 57.0 8.8- 2.8--1013.6- 0.0--x- 14.3-------
2010-06-17 17.3 24.6 6.5 4.4 53.0 9.6- 3.2--1010.4- 0.0--x- 15.6-------
2010-06-18 18.2 26.8 9.1 7.1 55.0 10.8- 2.9-- 999.4- 0.0--x- 12.7-------
2010-06-19 13.1 17.5 8.7 6.6 58.0 8.6- 3.2-- 997.0- 0.0--x- 3.6-------
2010-06-20 13.8 19.4 6.1 3.9 61.0 9.2- 2.0--1002.4- 0.0--x- 4.9-------
2010-06-21 14.5 20.4 9.3 7.0 69.0 11.2- 2.6--1008.6- 0.0--x- 7.3-------
2010-06-22 16.0 23.3 6.9 4.6 60.0 10.2- 2.3--1012.3- 0.0--x- 9.4-------
2010-06-23 16.0 22.4 7.0 5.2 60.0 10.4- 1.8--1012.8- 0.0--x- 4.1-------
2010-06-24 18.1 25.7 8.6 6.6 62.0 11.9- 2.1--1008.4- 0.0--x- 8.2-------
2010-06-25 20.1 26.6 11.6 9.7 59.0 13.1- 1.5--1005.6- 0.0--x- 7.3-------
2010-06-26 20.1 25.6 13.6 10.3 59.0 13.4- 2.2--1008.1- 0.0--x- 6.5-------
2010-06-27 19.5 27.2 9.6 7.9 50.0 10.4- 2.0--1012.5- 0.0--x- 15.6-------
2010-06-28 21.5 29.7 9.5 7.6 48.0 11.0- 1.9--1011.3- 0.0--x- 15.5-------
2010-06-29 23.4 31.5 13.2 11.3 47.0 12.1- 1.7--1008.9- 0.0--x- 15.0-------
2010-06-30 22.9 30.0 14.9 12.8 55.0 14.5- 2.3--1008.7- 0.0--x- 11.4-------
2010-07-01 21.6 29.5 14.8 13.4 65.0 15.8- 1.4--1008.7- 1.4--x- 9.1-------
2010-07-02 24.0 31.9 14.4 13.0 54.0 14.5- 1.8--1009.0- 0.0--x- 14.5-------
2010-07-03 25.6 33.2 15.2 13.1 46.0 13.6- 2.1--1009.1- 0.0--x- 14.5-------
2010-07-04 24.9 32.6 15.9 13.6 38.0 10.9- 2.1--1008.0- 0.0--x- 14.2-------
2010-07-05 23.8 31.0 17.4 16.7 59.0 17.1- 2.0--1007.1- 12.5--x- 3.9-------
2010-07-06 18.1 22.5 13.5 11.7 71.0 14.3- 3.1--1009.8- 0.6--x- 1.9-------
2010-07-07 17.4 23.7 10.6 9.2 60.0 11.2- 2.2--1013.8- 0.0--x- 12.8-------
2010-07-08 20.5 29.5 9.5 8.3 56.0 12.0- 1.3--1013.0- 0.0--x- 15.1-------
2010-07-09 25.5 33.4 13.7 12.3 48.0 13.9- 1.8--1011.6- 0.0--x- 15.3-------
2010-07-10 28.9 37.4 18.1 16.0 41.0 15.0- 2.2--1010.6- 0.0--x- 15.0-------
2010-07-11 30.6 37.1 20.6 16.5 32.0 14.5----1008.3- 0.0--x- 14.9-------
2010-07-12 30.2 37.6 21.6 19.3 41.0 16.1- 2.3--1004.1- 0.0--x- 15.0-------
79.0 ms

 

Źródłem pochodzenia danych jest Instytut Meteorologii i Gospodarki Wodnej – Państwowy Instytut Badawczy. Dane Instytutu Meteorologii i Gospodarki Wodnej – Państwowego Instytutu Badawczego zostały przetworzone.

Dane źródłowe można odnaleźć na stronie https://dane.imgw.pl